Hauptseite
METAR-TAF:

Flughäfen :

Newquay Cornwall, England

Newquay Cornwall Airport

Breite: 50-26N, Länge: 005-00W, Höhe: 119 m

Beobachtung

Neuester Wetterbericht von vor 41 Minuten, um 17:20 UTC
Wind 7 kt aus Nordwest, variierte zwischen West/Nordwest und Nord
Temperatur 13°C
Luftfeuchtigkeit 88%
Luftdruck 1016 hPa
Sichtweite 10 km oder mehr
Durchbrochene Bewölkung in der Höhe von 700 ft

METAR: EGHQ 271720Z 32007KT 290V350 9999 BKN007 13/11 Q1016

Zeit: 19:01 (18:01 UTC)

Prognose

Neuester Wetterbericht von vor 31 Minuten, um 17:30 UTC
Gültige Prognose vom 27 um 18 UTC bis 27 um 24 UTC
Wind 8 kt aus Nordwest
Sichtweite 10 km oder mehr
Durchbrochene Bewölkung in der Höhe von 500 ft
Wahrscheinlichkeit 40% :
Zeitweise
vom 27 um 18 UTC bis 27 um 24 UTC
Sichtweite: 7000 m
Durchbrochene Bewölkung in der Höhe von 400 ft

TAF: EGHQ 271730Z 2718/2724 32008KT 9999 BKN005 PROB40 TEMPO 2718/2724 7000 BKN004

METAR-TAF

Wetterbeobachtungen und Prognosen von mehr als 4000 Flughäfen (METAR und TAF Bericht).

Die verfügbaren Stationen werden durch gelbe und rote Markierungen auf der Karte dargestellt.

Führen Sie die Maus auf sie, um den Namen der Station zu sehen.

Darauf klicken, um die Beobachtung von Wetterbeobachtungen und Prognosen zu sehen.

Um die Karte zu ändern : klicken Sie auf den grünen Tasten mit einem schwarzen Kreuz Zum Vergrößern, auf den grünen Button mit einem Gedankenstrich zu verkleinern, oder auf die grünen Pfeile für benachbarte Karten.


METAR-TAF: